Time;durP1;ratioP1;P1;durP2;ratioP2;P2;SDS_P1;SDS_P2;PMS_P1;PMS_P2;Temp;Humidity;BMP_temperature;BMP_pressure;BME280_temperature;BME280_humidity;BME280_pressure;Samples;Min_cycle;Max_cycle;Signal;HPM_P1;HPM_P2
2021/05/23 00:02:13;;;;;;;5.50;1.73;;;;;;;14.51;44.98;97495.91;8300923;28;20208;-73
2021/05/23 00:06:17;;;;;;;2.63;1.37;;;;;;;14.50;45.19;97502.03;8320299;28;20225;-73
2021/05/23 00:10:20;;;;;;;3.80;1.40;;;;;;;14.44;45.87;97492.03;8320793;28;20243;-72
2021/05/23 00:14:23;;;;;;;6.67;1.50;;;;;;;14.42;45.42;97484.31;8320271;28;20201;-72
2021/05/23 00:18:26;;;;;;;5.10;1.80;;;;;;;14.41;45.57;97489.63;8320057;28;20235;-73
2021/05/23 00:22:29;;;;;;;5.07;1.33;;;;;;;14.41;45.87;97487.00;8320541;28;20344;-73
2021/05/23 00:26:33;;;;;;;6.33;1.50;;;;;;;14.44;45.61;97492.84;8319894;28;20601;-73
2021/05/23 00:30:36;;;;;;;5.07;1.40;;;;;;;14.42;45.82;97483.50;8319860;28;20388;-73
2021/05/23 00:34:39;;;;;;;3.33;1.30;;;;;;;14.37;46.33;97475.97;8319553;28;20201;-73
2021/05/23 00:38:43;;;;;;;5.07;1.53;;;;;;;14.40;46.10;97482.75;8318482;28;20201;-73
2021/05/23 00:42:45;;;;;;;5.27;1.50;;;;;;;14.43;46.36;97474.72;8319416;28;20201;-73
2021/05/23 00:46:48;;;;;;;5.30;1.60;;;;;;;14.44;46.34;97485.03;8319655;28;20216;-74
2021/05/23 00:50:52;;;;;;;3.80;1.23;;;;;;;14.38;46.55;97490.66;8319511;28;20212;-73
2021/05/23 00:54:54;;;;;;;5.13;1.40;;;;;;;14.37;46.78;97483.78;8319358;28;20201;-72
2021/05/23 00:58:57;;;;;;;3.00;1.30;;;;;;;14.34;46.65;97485.78;8318767;28;20292;-72
2021/05/23 01:03:01;;;;;;;4.53;1.43;;;;;;;14.31;46.91;97478.16;8299314;28;20249;-73
2021/05/23 01:07:03;;;;;;;4.80;1.27;;;;;;;14.26;47.17;97474.09;8286128;28;20241;-73
2021/05/23 01:11:07;;;;;;;3.57;1.43;;;;;;;14.26;47.37;97465.47;8286041;28;20276;-73
2021/05/23 01:15:10;;;;;;;5.90;1.60;;;;;;;14.23;47.74;97471.69;8286155;28;20547;-74
2021/05/23 01:19:17;;;;;;;3.83;1.27;;;;;;;14.26;47.63;97462.84;8285318;28;20260;-74
2021/05/23 01:23:25;;;;;;;3.30;1.40;;;;;;;14.24;47.91;97464.69;8285651;28;20208;-74
2021/05/23 01:27:35;;;;;;;5.43;1.50;;;;;;;14.26;47.19;97470.69;8285648;28;20206;-74
2021/05/23 01:31:39;;;;;;;5.13;1.40;;;;;;;14.22;47.49;97469.19;8285454;28;20230;-74
2021/05/23 01:35:45;;;;;;;4.43;1.60;;;;;;;14.25;47.09;97479.41;8307298;28;20232;-74
2021/05/23 01:39:47;;;;;;;5.83;1.70;;;;;;;14.21;47.51;97489.19;8317752;28;20208;-74
2021/05/23 01:43:51;;;;;;;5.30;1.40;;;;;;;14.16;48.25;97482.63;8317752;28;20399;-74
2021/05/23 01:47:53;;;;;;;3.00;1.50;;;;;;;14.19;47.63;97498.06;8317418;28;20204;-74
2021/05/23 01:51:56;;;;;;;4.93;1.53;;;;;;;14.13;48.12;97490.66;8316876;28;20219;-74
2021/05/23 01:55:59;;;;;;;4.63;1.73;;;;;;;14.02;48.59;97499.16;8317097;28;20239;-74
2021/05/23 02:00:03;;;;;;;3.40;1.27;;;;;;;14.07;49.00;97497.09;8317099;28;20207;-74
2021/05/23 02:04:05;;;;;;;6.20;1.50;;;;;;;14.01;49.51;97495.75;8288460;28;20497;-74
2021/05/23 02:08:08;;;;;;;4.37;1.43;;;;;;;14.08;49.25;97494.38;8284433;28;20235;-74
2021/05/23 02:12:12;;;;;;;4.40;1.30;;;;;;;14.11;49.61;97484.69;8284351;28;20208;-74
2021/05/23 02:16:17;;;;;;;3.40;1.57;;;;;;;14.07;49.60;97492.72;8284449;28;20245;-74
2021/05/23 02:20:22;;;;;;;5.70;1.60;;;;;;;14.13;48.92;97506.28;8284305;28;20212;-74
2021/05/23 02:24:25;;;;;;;5.30;1.47;;;;;;;14.05;49.38;97498.94;8284374;28;20511;-74
2021/05/23 02:28:27;;;;;;;5.33;1.67;;;;;;;14.05;49.30;97506.75;8284437;28;20209;-74
2021/05/23 02:32:30;;;;;;;4.10;1.23;;;;;;;13.98;50.35;97518.53;8284302;28;20202;-74
2021/05/23 02:36:33;;;;;;;4.23;1.30;;;;;;;13.96;50.29;97523.00;8283836;28;20225;-74
2021/05/23 02:40:36;;;;;;;3.83;1.47;;;;;;;14.02;48.96;97533.00;8284676;28;20202;-73
2021/05/23 02:44:38;;;;;;;4.07;1.47;;;;;;;14.03;48.81;97538.13;8284016;28;20217;-72
2021/05/23 02:48:41;;;;;;;4.53;1.23;;;;;;;14.05;49.55;97532.78;8283874;28;20216;-73
2021/05/23 02:52:44;;;;;;;4.20;1.40;;;;;;;14.08;49.52;97532.59;8284194;28;20386;-74
2021/05/23 02:56:47;;;;;;;4.13;1.13;;;;;;;14.05;49.84;97530.19;8283958;28;20337;-73
2021/05/23 03:00:49;;;;;;;3.97;1.33;;;;;;;14.08;49.91;97538.63;8283976;28;20208;-73
2021/05/23 03:04:54;;;;;;;2.43;1.23;;;;;;;14.10;50.67;97546.34;8290047;28;20245;-74
2021/05/23 03:08:56;;;;;;;2.70;1.20;;;;;;;14.10;51.45;97548.97;8290383;28;20608;-73
2021/05/23 03:13:00;;;;;;;2.47;1.00;;;;;;;14.05;52.41;97562.28;8289672;28;20208;-73
2021/05/23 03:17:07;;;;;;;3.57;1.00;;;;;;;14.06;52.49;97569.16;8289384;28;20225;-73
2021/05/23 03:21:10;;;;;;;4.90;1.20;;;;;;;14.02;52.51;97565.06;8289644;28;20209;-74
2021/05/23 03:25:14;;;;;;;2.37;1.17;;;;;;;14.03;52.54;97571.09;8289816;28;20495;-74
2021/05/23 03:29:17;;;;;;;2.07;1.00;;;;;;;13.96;52.82;97572.47;8289452;28;20202;-74
2021/05/23 03:33:19;;;;;;;2.50;0.93;;;;;;;13.93;53.37;97583.06;8289393;28;20202;-73
2021/05/23 03:37:22;;;;;;;5.33;1.00;;;;;;;13.81;54.39;97576.88;8289035;28;20241;-73
2021/05/23 03:41:25;;;;;;;4.57;0.87;;;;;;;13.91;54.52;97585.75;8289105;28;20206;-73
2021/05/23 03:45:27;;;;;;;3.67;0.90;;;;;;;13.89;54.74;97591.06;8288861;28;20511;-74
2021/05/23 03:49:29;;;;;;;3.63;0.97;;;;;;;13.93;54.86;97589.09;8289032;28;20382;-74
2021/05/23 03:53:33;;;;;;;3.13;1.00;;;;;;;13.83;55.05;97590.63;8288241;28;20208;-74
2021/05/23 03:57:35;;;;;;;4.47;1.00;;;;;;;13.88;55.38;97592.00;8288702;28;20229;-74
2021/05/23 04:01:37;;;;;;;3.13;1.00;;;;;;;13.95;54.91;97595.03;8288179;28;20202;-74
2021/05/23 04:05:40;;;;;;;1.30;0.90;;;;;;;13.97;54.69;97600.16;8288191;28;20259;-74
2021/05/23 04:09:43;;;;;;;1.10;0.80;;;;;;;13.98;55.01;97596.63;8287865;28;20234;-74
2021/05/23 04:13:47;;;;;;;1.73;0.80;;;;;;;13.96;55.10;97596.72;8287429;28;20228;-73
2021/05/23 04:17:49;;;;;;;3.10;1.00;;;;;;;13.98;55.09;97600.06;8287444;28;20226;-74
2021/05/23 04:21:51;;;;;;;2.60;0.90;;;;;;;13.98;55.24;97609.66;8287744;28;20524;-73
2021/05/23 04:25:55;;;;;;;5.73;0.80;;;;;;;13.92;55.30;97617.81;8287390;28;20212;-74
2021/05/23 04:29:57;;;;;;;2.97;0.97;;;;;;;13.87;55.81;97639.78;8287525;28;20201;-74
2021/05/23 04:33:59;;;;;;;3.93;1.03;;;;;;;13.79;55.97;97636.00;8287773;28;20209;-74
2021/05/23 04:38:03;;;;;;;2.67;1.13;;;;;;;13.81;55.89;97645.38;8287554;28;20411;-74
2021/05/23 04:42:06;;;;;;;5.00;1.10;;;;;;;13.75;55.91;97650.13;8287237;28;20201;-74
2021/05/23 04:46:29;;;;;;;2.87;0.90;;;;;;;13.88;55.65;97658.84;8287014;28;20201;-74
2021/05/23 04:50:32;;;;;;;3.37;1.00;;;;;;;13.72;55.71;97660.72;8286831;28;20201;-73
2021/05/23 04:54:36;;;;;;;2.03;0.80;;;;;;;13.71;55.28;97665.09;8286636;28;20202;-73
2021/05/23 04:58:39;;;;;;;3.73;0.90;;;;;;;13.79;55.26;97667.22;8286654;28;20289;-74
2021/05/23 05:02:42;;;;;;;3.30;1.23;;;;;;;13.92;54.88;97669.88;8286398;28;20201;-74
2021/05/23 05:06:44;;;;;;;1.87;0.93;;;;;;;13.84;55.13;97684.22;8286267;28;20233;-74
2021/05/23 05:10:46;;;;;;;1.73;0.90;;;;;;;13.83;55.83;97684.31;8286081;28;20236;-74
2021/05/23 05:14:50;;;;;;;4.27;1.20;;;;;;;13.80;55.61;97684.50;8285748;28;20202;-74
2021/05/23 05:18:53;;;;;;;2.57;1.20;;;;;;;13.89;55.55;97691.75;8285958;28;20234;-74
2021/05/23 05:22:55;;;;;;;2.63;1.17;;;;;;;13.93;55.58;97698.44;8285814;28;20203;-74
2021/05/23 05:26:58;;;;;;;2.53;1.17;;;;;;;13.84;55.87;97715.47;8285291;28;20535;-74
2021/05/23 05:31:01;;;;;;;3.17;1.30;;;;;;;13.86;56.27;97724.00;8285370;28;20202;-74
2021/05/23 05:35:04;;;;;;;3.97;1.10;;;;;;;13.76;57.04;97725.50;8285540;28;20492;-74
2021/05/23 05:39:07;;;;;;;2.37;1.10;;;;;;;13.82;57.41;97730.34;8285476;28;20556;-74
2021/05/23 05:43:09;;;;;;;3.17;1.00;;;;;;;13.90;57.13;97737.69;8285218;28;20213;-74
2021/05/23 05:47:13;;;;;;;3.07;1.27;;;;;;;13.87;57.02;97732.66;8284873;28;20212;-73
2021/05/23 05:51:15;;;;;;;2.13;0.90;;;;;;;13.93;57.25;97744.44;8284845;28;20347;-74
2021/05/23 05:55:17;;;;;;;3.10;1.13;;;;;;;14.10;56.25;97752.06;8284657;28;20208;-73
2021/05/23 05:59:20;;;;;;;2.53;1.07;;;;;;;14.03;56.28;97758.56;8284457;28;20229;-74
2021/05/23 06:03:23;;;;;;;2.30;1.00;;;;;;;14.01;56.26;97773.44;8284759;28;20534;-74
2021/05/23 06:07:25;;;;;;;2.53;1.00;;;;;;;14.15;55.92;97770.00;8284648;28;20423;-74
2021/05/23 06:11:28;;;;;;;2.67;1.17;;;;;;;14.26;55.98;97778.00;8284945;28;20209;-74
2021/05/23 06:15:32;;;;;;;1.77;1.00;;;;;;;14.21;54.41;97793.06;8284328;28;20202;-74
2021/05/23 06:19:35;;;;;;;3.27;0.93;;;;;;;14.18;54.58;97798.44;8284289;28;20229;-74
2021/05/23 06:23:38;;;;;;;3.20;1.60;;;;;;;14.28;53.23;97796.97;8284501;28;20201;-73
2021/05/23 06:27:40;;;;;;;3.10;0.90;;;;;;;14.22;53.04;97794.72;8284193;28;20209;-74
2021/05/23 06:31:42;;;;;;;1.93;1.00;;;;;;;14.06;53.48;97803.47;8284136;28;20276;-74
2021/05/23 06:35:46;;;;;;;2.83;0.90;;;;;;;14.27;52.64;97801.31;8285641;28;20293;-74
2021/05/23 06:39:48;;;;;;;2.90;0.93;;;;;;;14.33;51.86;97807.09;8290703;28;20264;-74
2021/05/23 06:43:50;;;;;;;8.07;1.10;;;;;;;14.50;51.40;97798.22;8290442;28;20205;-73
2021/05/23 06:47:53;;;;;;;2.37;0.90;;;;;;;14.52;50.48;97798.97;8290709;28;20236;-74
2021/05/23 06:51:58;;;;;;;2.27;0.90;;;;;;;14.55;50.09;97797.00;8290325;28;20209;-74
2021/05/23 06:56:00;;;;;;;3.37;1.10;;;;;;;14.94;49.66;97808.44;8290164;28;20236;-73
2021/05/23 07:00:03;;;;;;;3.60;1.07;;;;;;;15.23;49.61;97795.28;8290143;28;20401;-73
2021/05/23 07:04:06;;;;;;;4.13;1.20;;;;;;;15.52;48.08;97792.53;8289662;28;20218;-73
2021/05/23 07:08:09;;;;;;;3.27;0.83;;;;;;;15.53;46.94;97795.00;8289808;28;20548;-74
2021/05/23 07:12:12;;;;;;;2.17;0.90;;;;;;;15.95;46.41;97797.44;8289627;28;20202;-74
2021/05/23 07:16:14;;;;;;;3.23;0.80;;;;;;;15.95;46.52;97800.06;8289488;28;20201;-74
2021/05/23 07:20:17;;;;;;;2.37;0.90;;;;;;;16.10;46.09;97806.81;8289852;28;20209;-74
2021/05/23 07:24:20;;;;;;;1.93;0.80;;;;;;;16.53;44.96;97801.22;8289778;28;20209;-74
2021/05/23 07:28:22;;;;;;;2.57;1.07;;;;;;;16.46;44.23;97801.75;8289296;28;20212;-74
2021/05/23 07:32:25;;;;;;;2.30;0.90;;;;;;;16.55;43.39;97795.88;8301015;28;20197;-74
2021/05/23 07:36:27;;;;;;;2.97;0.93;;;;;;;16.58;44.38;97803.47;8321631;28;20201;-74
2021/05/23 07:40:31;;;;;;;3.37;1.20;;;;;;;16.65;44.13;97803.91;8321760;28;20595;-74
2021/05/23 07:44:33;;;;;;;4.67;1.60;;;;;;;17.26;41.28;97798.63;8321207;28;20279;-74
2021/05/23 07:48:35;;;;;;;2.83;1.03;;;;;;;17.67;40.97;97799.88;8320868;28;20204;-74
2021/05/23 07:52:38;;;;;;;2.23;0.83;;;;;;;17.78;41.23;97797.28;8321147;28;20201;-74
2021/05/23 07:56:42;;;;;;;1.70;0.80;;;;;;;17.17;40.89;97800.13;8320788;28;20229;-75
2021/05/23 08:00:45;;;;;;;2.07;1.30;;;;;;;17.16;41.98;97804.53;8319544;28;20363;-74
2021/05/23 08:04:47;;;;;;;2.53;1.03;;;;;;;18.35;39.38;97806.03;8288378;28;20521;-75
2021/05/23 08:08:50;;;;;;;3.77;1.37;;;;;;;17.46;41.20;97815.44;8287756;28;20237;-74
2021/05/23 08:12:53;;;;;;;2.87;1.97;;;;;;;17.39;41.40;97823.75;8287912;28;20202;-75
2021/05/23 08:16:55;;;;;;;4.37;2.07;;;;;;;17.73;39.82;97834.31;8287366;28;20241;-74
2021/05/23 08:20:59;;;;;;;2.90;1.00;;;;;;;17.98;40.19;97832.47;8287735;28;20519;-74
2021/05/23 08:25:03;;;;;;;3.17;1.30;;;;;;;18.68;38.17;97841.03;8287623;28;20212;-75
2021/05/23 08:29:06;;;;;;;3.13;1.20;;;;;;;17.66;38.27;97851.44;8287714;28;20206;-75
2021/05/23 08:33:10;;;;;;;2.57;0.87;;;;;;;16.81;39.80;97849.75;8287387;28;20387;-75
2021/05/23 08:37:13;;;;;;;2.50;1.10;;;;;;;17.91;37.36;97857.47;8286876;28;20237;-75
2021/05/23 08:41:15;;;;;;;3.73;1.30;;;;;;;17.23;38.40;97849.41;8287379;28;20221;-75
2021/05/23 08:45:18;;;;;;;4.97;1.70;;;;;;;17.13;39.03;97851.84;8292787;28;20204;-75
2021/05/23 08:49:22;;;;;;;3.03;1.33;;;;;;;16.53;40.18;97856.09;8319382;28;20212;-75
2021/05/23 08:53:26;;;;;;;2.93;1.00;;;;;;;16.53;41.47;97873.56;8319177;28;20232;-75
2021/05/23 08:57:28;;;;;;;4.43;1.03;;;;;;;15.90;48.83;97890.97;8319228;28;20225;-75
2021/05/23 09:01:31;;;;;;;5.37;1.00;;;;;;;15.60;51.14;97885.00;8310352;28;20208;-74
2021/05/23 09:05:35;;;;;;;3.93;1.20;;;;;;;15.57;51.14;97905.25;8286097;28;20289;-76
2021/05/23 09:09:42;;;;;;;2.90;1.10;;;;;;;15.38;51.98;97898.66;8286490;28;20236;-75
2021/05/23 09:13:45;;;;;;;3.37;1.30;;;;;;;15.72;52.46;97899.03;8285976;28;20198;-75
2021/05/23 09:18:00;;;;;;;2.57;1.00;;;;;;;16.15;51.84;97897.97;8285165;28;20236;-74
2021/05/23 09:22:08;;;;;;;3.30;1.10;;;;;;;16.29;50.64;97897.84;8286003;28;20208;-75
2021/05/23 09:26:17;;;;;;;2.77;1.20;;;;;;;16.46;50.08;97895.84;8285851;28;20208;-75
2021/05/23 09:30:22;;;;;;;3.43;1.10;;;;;;;16.47;47.16;97900.13;8285571;28;20206;-74
2021/05/23 09:34:26;;;;;;;3.93;0.87;;;;;;;16.28;46.34;97893.56;8285129;28;20205;-75
2021/05/23 09:38:29;;;;;;;3.07;1.23;;;;;;;16.41;45.44;97896.16;8285086;28;20230;-75
2021/05/23 09:42:31;;;;;;;2.37;1.00;;;;;;;17.67;41.46;97902.88;8285340;28;20202;-76
2021/05/23 09:46:34;;;;;;;4.60;2.50;;;;;;;18.31;40.63;97902.41;8285407;28;20276;-76
2021/05/23 09:50:40;;;;;;;2.60;0.83;;;;;;;17.34;41.15;97896.56;8285389;28;20201;-75
2021/05/23 09:54:44;;;;;;;3.10;1.20;;;;;;;16.76;41.55;97901.53;8284991;28;20202;-76
2021/05/23 09:58:48;;;;;;;1.73;0.87;;;;;;;16.67;43.51;97907.41;8284816;28;20236;-75
2021/05/23 10:02:51;;;;;;;1.77;0.70;;;;;;;16.89;42.24;97909.38;8284741;28;20202;-75
2021/05/23 10:06:59;;;;;;;3.53;1.00;;;;;;;16.67;41.39;97909.19;8284274;28;20221;-74
2021/05/23 10:11:02;;;;;;;2.27;0.90;;;;;;;16.76;41.66;97919.84;8284289;28;20205;-75
2021/05/23 10:15:06;;;;;;;1.37;0.70;;;;;;;16.91;39.60;97917.13;8284666;28;20212;-75
2021/05/23 10:19:31;;;;;;;2.17;0.90;;;;;;;16.70;39.21;97922.06;8284293;28;20233;-75
2021/05/23 10:23:36;;;;;;;3.43;1.80;;;;;;;16.80;39.05;97929.13;8284408;28;20212;-74
2021/05/23 10:27:41;;;;;;;3.60;2.40;;;;;;;16.98;40.66;97928.81;8284598;28;20205;-75
2021/05/23 10:31:43;;;;;;;3.87;2.20;;;;;;;16.97;39.74;97937.63;8284326;28;20205;-76
2021/05/23 10:35:47;;;;;;;3.83;2.00;;;;;;;16.99;38.13;97933.94;8284429;28;20211;-75
2021/05/23 10:39:52;;;;;;;1.87;1.20;;;;;;;16.94;38.15;97929.97;8284152;28;20232;-75
2021/05/23 10:43:58;;;;;;;3.87;1.20;;;;;;;16.99;37.89;97935.72;8284073;28;20201;-75
2021/05/23 10:48:11;;;;;;;2.13;1.30;;;;;;;18.26;35.83;97946.50;8284027;28;20406;-75
2021/05/23 10:52:16;;;;;;;2.50;1.00;;;;;;;18.26;36.10;97943.03;8284084;28;20201;-75
2021/05/23 10:56:23;;;;;;;1.70;0.90;;;;;;;18.22;36.35;97944.22;8283848;28;20307;-75
2021/05/23 11:00:27;;;;;;;1.97;0.90;;;;;;;17.67;37.13;97952.63;8283907;28;20230;-75
2021/05/23 11:04:39;;;;;;;3.13;0.90;;;;;;;17.33;37.81;97965.53;8283474;28;20566;-75
2021/05/23 11:08:48;;;;;;;2.20;0.80;;;;;;;18.25;39.98;97955.31;8283852;28;20258;-74
2021/05/23 11:12:53;;;;;;;2.93;0.80;;;;;;;19.12;36.60;97963.47;8283484;28;20214;-75
2021/05/23 11:16:57;;;;;;;1.67;0.70;;;;;;;19.71;35.83;97946.47;8283652;28;20206;-75
2021/05/23 11:21:00;;;;;;;1.77;0.60;;;;;;;18.80;37.33;97954.66;8283246;28;20234;-75
2021/05/23 11:25:03;;;;;;;2.97;0.90;;;;;;;18.84;36.06;97954.31;8288169;28;20240;-75
2021/05/23 11:29:07;;;;;;;1.43;0.50;;;;;;;19.57;32.45;97944.13;8289250;28;20394;-75
2021/05/23 11:33:11;;;;;;;1.83;1.00;;;;;;;19.17;32.73;97949.13;8289024;28;20209;-75
2021/05/23 11:37:13;;;;;;;1.90;1.10;;;;;;;19.19;33.00;97963.84;8288780;28;20202;-75
2021/05/23 11:41:26;;;;;;;1.73;0.80;;;;;;;19.31;32.47;97943.63;8288960;28;20201;-76
2021/05/23 11:45:30;;;;;;;2.00;0.80;;;;;;;20.03;31.53;97942.16;8289338;28;20208;-75
2021/05/23 11:49:34;;;;;;;1.47;0.67;;;;;;;20.73;29.61;97940.63;8289097;28;20213;-75
2021/05/23 11:53:42;;;;;;;1.80;0.90;;;;;;;20.29;31.79;97937.34;8288589;28;20214;-75
2021/05/23 11:57:49;;;;;;;2.13;0.70;;;;;;;19.57;31.78;97938.03;8288211;28;20236;-75
2021/05/23 12:01:54;;;;;;;1.97;0.60;;;;;;;19.21;33.25;97947.94;8288538;28;20493;-75
2021/05/23 12:05:56;;;;;;;2.23;1.00;;;;;;;18.72;33.53;97942.13;8287967;28;20226;-75
2021/05/23 12:10:00;;;;;;;1.63;0.70;;;;;;;18.33;35.09;97947.72;8287940;28;20269;-75
2021/05/23 12:14:03;;;;;;;2.07;0.70;;;;;;;18.08;34.69;97942.66;8287995;28;20201;-75
2021/05/23 12:18:07;;;;;;;2.50;0.87;;;;;;;18.15;36.21;97956.97;8288059;28;20591;-75
2021/05/23 12:22:09;;;;;;;2.03;0.90;;;;;;;19.21;34.54;97953.19;8287899;28;20217;-75
2021/05/23 12:26:14;;;;;;;2.00;0.80;;;;;;;19.60;35.13;97953.56;8287756;28;20201;-75
2021/05/23 12:30:18;;;;;;;1.50;0.80;;;;;;;19.39;34.51;97951.72;8287531;28;20209;-75
2021/05/23 12:34:22;;;;;;;2.13;0.60;;;;;;;19.41;35.29;97960.31;8286675;28;20217;-75
2021/05/23 12:38:24;;;;;;;2.10;0.50;;;;;;;19.30;35.22;97960.31;8286487;28;20292;-75
2021/05/23 12:42:32;;;;;;;2.97;0.70;;;;;;;18.78;35.00;97967.88;8286251;28;20205;-75
2021/05/23 12:46:35;;;;;;;1.30;0.70;;;;;;;18.55;34.17;97978.34;8283502;28;20209;-74
2021/05/23 12:50:41;;;;;;;11.90;7.10;;;;;;;18.71;37.06;97972.75;8286444;28;20404;-75
2021/05/23 12:54:43;;;;;;;5.37;3.00;;;;;;;18.75;40.15;97981.22;8278821;28;20204;-71
2021/05/23 12:58:48;;;;;;;2.80;1.00;;;;;;;19.01;36.11;97981.84;8279460;28;20472;-70
2021/05/23 13:02:50;;;;;;;1.47;0.70;;;;;;;20.14;34.43;97985.97;8285393;28;20274;-70
2021/05/23 13:06:56;;;;;;;2.93;0.60;;;;;;;19.58;32.90;97987.00;8285820;28;20221;-75
2021/05/23 13:10:59;;;;;;;1.97;0.60;;;;;;;20.26;31.59;97982.31;8286224;28;20276;-73
2021/05/23 13:15:03;;;;;;;3.63;0.60;;;;;;;20.87;30.39;97973.66;8286550;28;20480;-73
2021/05/23 13:19:11;;;;;;;1.47;0.70;;;;;;;20.67;30.54;97970.91;8286652;28;20407;-74
2021/05/23 13:23:14;;;;;;;5.27;0.60;;;;;;;19.45;32.98;97987.16;8285992;28;20206;-70
2021/05/23 13:27:17;;;;;;;4.10;0.87;;;;;;;19.14;33.40;97990.44;8285925;28;20205;-69
2021/05/23 13:31:19;;;;;;;3.70;0.87;;;;;;;18.76;34.95;97988.16;8285615;28;20202;-71
2021/05/23 13:35:22;;;;;;;2.83;0.70;;;;;;;19.02;34.15;97985.31;8285788;28;20206;-71
2021/05/23 13:39:25;;;;;;;2.07;0.70;;;;;;;19.75;32.93;97996.19;8285316;28;20229;-72
2021/05/23 13:43:28;;;;;;;2.17;0.60;;;;;;;20.25;31.93;97985.91;8284937;28;20233;-70
2021/05/23 13:47:30;;;;;;;3.27;0.90;;;;;;;20.40;31.56;97987.22;8284703;28;20205;-71
2021/05/23 13:51:33;;;;;;;10.77;1.17;;;;;;;20.70;31.41;97983.00;8285080;28;20202;-71
2021/05/23 13:55:37;;;;;;;4.37;0.70;;;;;;;20.28;30.50;97977.75;8285211;28;20206;-72
2021/05/23 13:59:40;;;;;;;1.80;0.70;;;;;;;19.99;31.83;97978.41;8270992;28;20229;-72
2021/05/23 14:03:42;;;;;;;3.40;0.77;;;;;;;20.45;29.87;97974.53;8268917;28;20206;-71
2021/05/23 14:07:45;;;;;;;1.37;0.60;;;;;;;21.02;29.92;97968.88;8284351;28;20353;-74
2021/05/23 14:11:49;;;;;;;1.67;0.60;;;;;;;20.17;31.00;97973.38;8284820;28;20556;-73
2021/05/23 14:15:51;;;;;;;1.93;0.70;;;;;;;20.20;31.29;97980.19;8284764;28;20516;-74
2021/05/23 14:19:53;;;;;;;0.87;0.50;;;;;;;20.14;31.55;97972.81;8284432;28;20225;-74
2021/05/23 14:23:56;;;;;;;1.50;0.70;;;;;;;20.48;31.28;97969.00;8284323;28;20208;-73
2021/05/23 14:27:59;;;;;;;1.90;0.80;;;;;;;20.67;31.03;97970.91;8284206;28;20395;-73
2021/05/23 14:32:02;;;;;;;2.47;0.80;;;;;;;20.73;32.34;97974.81;8284539;28;20206;-73
2021/05/23 14:36:05;;;;;;;1.47;0.60;;;;;;;20.03;32.43;97973.69;8284097;28;20501;-73
2021/05/23 14:40:09;;;;;;;1.30;0.63;;;;;;;20.03;32.50;97982.44;8283891;28;20232;-73
2021/05/23 14:44:13;;;;;;;1.53;0.80;;;;;;;20.65;32.48;97979.91;8284465;28;20202;-73
2021/05/23 14:48:16;;;;;;;2.33;0.70;;;;;;;20.66;32.86;97976.34;8284309;28;20272;-73
2021/05/23 14:52:19;;;;;;;1.43;0.57;;;;;;;20.63;32.02;97968.69;8283017;28;20213;-74
2021/05/23 14:56:22;;;;;;;1.87;0.73;;;;;;;20.68;31.38;97964.72;8283327;28;20264;-73
2021/05/23 15:00:25;;;;;;;1.43;0.63;;;;;;;20.53;30.56;97965.16;8289029;28;20284;-73
2021/05/23 15:04:28;;;;;;;2.77;0.80;;;;;;;20.51;30.01;97960.84;8289679;28;20228;-73
2021/05/23 15:08:30;;;;;;;1.77;0.50;;;;;;;20.25;30.63;97972.75;8290603;28;20264;-73
2021/05/23 15:12:33;;;;;;;5.53;0.80;;;;;;;19.83;31.36;97972.72;8290215;28;20202;-72
2021/05/23 15:16:37;;;;;;;2.13;1.17;;;;;;;20.02;30.96;97967.63;8289817;28;20446;-73
2021/05/23 15:20:39;;;;;;;1.87;0.80;;;;;;;19.97;31.42;97955.81;8289529;28;20230;-73
2021/05/23 15:24:42;;;;;;;1.20;0.40;;;;;;;20.08;31.40;97964.47;8289790;28;20202;-73
2021/05/23 15:33:07;;;;;;;1.53;0.50;;;;;;;19.74;31.77;97955.91;8289359;28;20297;-73
2021/05/23 15:37:10;;;;;;;5.50;0.90;;;;;;;19.69;31.96;97963.31;8289305;28;20208;-74
2021/05/23 15:41:13;;;;;;;1.97;0.70;;;;;;;19.52;32.62;97964.69;8288748;28;20233;-74
2021/05/23 15:45:32;;;;;;;1.60;0.50;;;;;;;19.51;33.53;97977.00;8289153;28;20316;-74
2021/05/23 15:49:36;;;;;;;1.83;0.77;;;;;;;19.42;33.69;97977.75;8288628;28;20205;-74
2021/05/23 15:53:38;;;;;;;4.87;1.00;;;;;;;19.70;33.98;97971.09;8288720;28;20207;-73
2021/05/23 15:57:40;;;;;;;1.77;1.10;;;;;;;19.30;34.48;97958.53;8288632;28;20202;-74
2021/05/23 16:01:43;;;;;;;3.20;0.90;;;;;;;19.04;35.04;97962.41;8288377;28;20255;-74
2021/05/23 16:05:46;;;;;;;2.77;0.70;;;;;;;18.99;34.30;97964.56;8288365;28;20492;-73
2021/05/23 16:09:48;;;;;;;2.20;0.57;;;;;;;18.90;34.19;97960.88;8287482;28;20236;-73
2021/05/23 16:13:53;;;;;;;2.17;1.00;;;;;;;19.10;34.03;97948.81;8287366;28;20193;-73
2021/05/23 16:17:56;;;;;;;1.63;0.70;;;;;;;19.32;33.73;97946.13;8287279;28;20202;-74
2021/05/23 16:21:59;;;;;;;3.00;0.80;;;;;;;19.53;35.02;97946.19;8287329;28;20552;-73
2021/05/23 16:26:01;;;;;;;1.73;0.87;;;;;;;19.50;33.74;97945.59;8287289;28;20611;-74
2021/05/23 16:30:05;;;;;;;1.73;0.83;;;;;;;19.59;34.85;97952.75;8287856;28;20399;-74
2021/05/23 16:34:08;;;;;;;2.07;0.83;;;;;;;19.54;34.68;97950.47;8287344;28;20201;-74
2021/05/23 16:38:11;;;;;;;2.97;0.83;;;;;;;19.18;36.13;97954.28;8287575;28;20202;-74
2021/05/23 16:42:13;;;;;;;3.03;1.00;;;;;;;18.73;37.15;97965.63;8287107;28;20208;-74
2021/05/23 16:46:16;;;;;;;3.80;0.90;;;;;;;18.61;37.62;97963.94;8286880;28;20213;-74
2021/05/23 16:50:19;;;;;;;2.20;0.70;;;;;;;18.50;37.32;97964.75;8286774;28;20212;-74
2021/05/23 16:54:22;;;;;;;2.60;0.83;;;;;;;18.34;36.88;97962.47;8286441;28;20280;-74
2021/05/23 16:58:24;;;;;;;2.97;0.90;;;;;;;18.30;37.22;97961.06;8286161;28;20209;-73
2021/05/23 17:02:27;;;;;;;1.97;0.80;;;;;;;18.34;36.95;97959.03;8286393;28;20202;-73
2021/05/23 17:06:30;;;;;;;1.50;0.60;;;;;;;18.41;37.21;97962.88;8298046;28;20235;-73
2021/05/23 17:10:33;;;;;;;1.73;0.83;;;;;;;18.28;37.21;97976.06;8295415;28;20242;-72
2021/05/23 17:14:36;;;;;;;1.77;0.73;;;;;;;18.49;36.96;97972.75;8307156;28;20203;-73
2021/05/23 17:18:38;;;;;;;3.03;0.90;;;;;;;18.35;35.98;97968.56;8318789;28;20213;-73
2021/05/23 17:22:41;;;;;;;3.50;0.80;;;;;;;18.46;36.58;97965.94;8299430;28;20193;-71
2021/05/23 17:26:44;;;;;;;4.57;1.23;;;;;;;18.72;36.15;97976.25;8274326;28;20205;-72
2021/05/23 17:30:47;;;;;;;10.23;1.70;;;;;;;18.88;39.70;97965.41;8288152;28;20511;-73
2021/05/23 17:34:49;;;;;;;14.63;2.20;;;;;;;18.95;40.48;97967.41;8304511;28;20228;-74
2021/05/23 17:38:52;;;;;;;13.63;3.10;;;;;;;18.87;38.52;97976.88;8287911;28;20229;-74
2021/05/23 17:42:55;;;;;;;10.47;2.50;;;;;;;18.89;38.27;97977.59;8317891;28;20208;-72
2021/05/23 17:46:58;;;;;;;15.13;2.70;;;;;;;18.90;37.77;97987.94;8317585;28;20207;-73
2021/05/23 17:51:00;;;;;;;11.03;1.90;;;;;;;18.80;35.88;97980.88;8313977;28;20201;-74
2021/05/23 17:55:04;;;;;;;11.93;2.23;;;;;;;18.83;36.82;97984.13;8293474;28;20198;-73
2021/05/23 17:59:07;;;;;;;7.03;1.97;;;;;;;18.85;37.53;97979.59;8289911;28;20546;-74
2021/05/23 18:03:09;;;;;;;7.07;1.60;;;;;;;18.86;37.37;97980.44;8296331;28;20198;-72
2021/05/23 18:07:12;;;;;;;6.47;1.50;;;;;;;18.72;36.90;97976.25;8284150;28;20248;-72
2021/05/23 18:11:14;;;;;;;4.60;1.10;;;;;;;18.62;36.20;97983.13;8284608;28;20205;-72
2021/05/23 18:15:19;;;;;;;4.23;1.20;;;;;;;18.48;37.08;97978.94;8284246;28;20202;-72
2021/05/23 18:19:22;;;;;;;4.73;1.20;;;;;;;18.33;35.61;97976.56;8284265;28;20426;-73
2021/05/23 18:23:24;;;;;;;2.77;0.70;;;;;;;18.32;36.52;97976.66;8284416;28;20357;-73
2021/05/23 18:27:27;;;;;;;4.27;0.90;;;;;;;18.31;36.29;97983.69;8284338;28;20500;-73
2021/05/23 18:31:30;;;;;;;3.33;0.97;;;;;;;18.16;36.54;97985.69;8285248;28;20217;-73
2021/05/23 18:35:32;;;;;;;4.00;1.07;;;;;;;18.21;36.59;97974.84;8290942;28;20208;-71
2021/05/23 18:39:37;;;;;;;2.20;0.80;;;;;;;18.15;36.21;97984.00;8290821;28;20295;-72
2021/05/23 18:43:39;;;;;;;3.63;1.13;;;;;;;18.07;36.23;97989.00;8290020;28;20194;-72
2021/05/23 18:47:44;;;;;;;2.93;1.10;;;;;;;17.95;36.93;97992.50;8290448;28;20198;-71
2021/05/23 18:51:46;;;;;;;3.40;0.90;;;;;;;17.86;36.61;97993.19;8279031;28;20212;-72
2021/05/23 18:55:49;;;;;;;1.47;0.80;;;;;;;17.85;37.35;98005.47;8282092;28;20511;-73
2021/05/23 18:59:51;;;;;;;2.53;1.00;;;;;;;17.79;37.80;98004.09;8290516;28;20229;-71
2021/05/23 19:03:55;;;;;;;2.57;0.77;;;;;;;17.74;38.51;98013.22;8290079;28;20205;-72
2021/05/23 19:07:57;;;;;;;3.37;0.90;;;;;;;17.57;38.36;98017.06;8290025;28;20241;-72
2021/05/23 19:11:59;;;;;;;3.60;1.07;;;;;;;17.44;39.38;98027.59;8290149;28;20523;-72